sensor_id;sensor_type;location;lat;lon;timestamp;P1;durP1;ratioP1;P2;durP2;ratioP2
60969;SDS011;46841;48.938;9.502;2023-11-19T00:00:06;0.70;;;0.70;;
60969;SDS011;46841;48.938;9.502;2023-11-19T00:02:36;0.70;;;0.70;;
60969;SDS011;46841;48.938;9.502;2023-11-19T00:05:02;0.70;;;0.70;;
60969;SDS011;46841;48.938;9.502;2023-11-19T00:07:28;0.70;;;0.70;;
60969;SDS011;46841;48.938;9.502;2023-11-19T00:09:53;0.70;;;0.70;;
60969;SDS011;46841;48.938;9.502;2023-11-19T00:12:20;0.70;;;0.70;;
60969;SDS011;46841;48.938;9.502;2023-11-19T00:14:45;0.70;;;0.70;;
60969;SDS011;46841;48.938;9.502;2023-11-19T00:17:11;0.70;;;0.70;;
60969;SDS011;46841;48.938;9.502;2023-11-19T00:19:37;0.70;;;0.70;;
60969;SDS011;46841;48.938;9.502;2023-11-19T00:22:02;0.70;;;0.70;;
60969;SDS011;46841;48.938;9.502;2023-11-19T00:24:29;0.70;;;0.70;;
60969;SDS011;46841;48.938;9.502;2023-11-19T00:26:55;0.75;;;0.75;;
60969;SDS011;46841;48.938;9.502;2023-11-19T00:29:24;0.70;;;0.70;;
60969;SDS011;46841;48.938;9.502;2023-11-19T00:31:49;0.70;;;0.70;;
60969;SDS011;46841;48.938;9.502;2023-11-19T00:34:15;0.60;;;0.60;;
60969;SDS011;46841;48.938;9.502;2023-11-19T00:36:40;0.60;;;0.60;;
60969;SDS011;46841;48.938;9.502;2023-11-19T00:39:06;0.70;;;0.70;;
60969;SDS011;46841;48.938;9.502;2023-11-19T00:41:34;0.60;;;0.60;;
60969;SDS011;46841;48.938;9.502;2023-11-19T00:44:00;0.73;;;0.73;;
60969;SDS011;46841;48.938;9.502;2023-11-19T00:46:25;0.80;;;0.80;;
60969;SDS011;46841;48.938;9.502;2023-11-19T00:48:51;0.70;;;0.70;;
60969;SDS011;46841;48.938;9.502;2023-11-19T00:51:17;0.70;;;0.70;;
60969;SDS011;46841;48.938;9.502;2023-11-19T00:53:42;0.70;;;0.70;;
60969;SDS011;46841;48.938;9.502;2023-11-19T00:56:08;0.70;;;0.70;;
60969;SDS011;46841;48.938;9.502;2023-11-19T00:58:34;0.70;;;0.70;;
60969;SDS011;46841;48.938;9.502;2023-11-19T01:00:59;0.60;;;0.60;;
60969;SDS011;46841;48.938;9.502;2023-11-19T01:03:25;0.70;;;0.70;;
60969;SDS011;46841;48.938;9.502;2023-11-19T01:05:51;0.70;;;0.70;;
60969;SDS011;46841;48.938;9.502;2023-11-19T01:08:20;0.70;;;0.70;;
60969;SDS011;46841;48.938;9.502;2023-11-19T01:10:45;0.77;;;0.77;;
60969;SDS011;46841;48.938;9.502;2023-11-19T01:13:10;0.70;;;0.70;;
60969;SDS011;46841;48.938;9.502;2023-11-19T01:15:36;0.60;;;0.60;;
60969;SDS011;46841;48.938;9.502;2023-11-19T01:18:01;0.70;;;0.70;;
60969;SDS011;46841;48.938;9.502;2023-11-19T01:20:31;0.70;;;0.70;;
60969;SDS011;46841;48.938;9.502;2023-11-19T01:22:56;0.60;;;0.60;;
60969;SDS011;46841;48.938;9.502;2023-11-19T01:25:21;0.70;;;0.70;;
60969;SDS011;46841;48.938;9.502;2023-11-19T01:27:47;0.70;;;0.70;;
60969;SDS011;46841;48.938;9.502;2023-11-19T01:30:13;0.70;;;0.70;;
60969;SDS011;46841;48.938;9.502;2023-11-19T01:32:41;0.63;;;0.63;;
60969;SDS011;46841;48.938;9.502;2023-11-19T01:35:07;0.70;;;0.70;;
60969;SDS011;46841;48.938;9.502;2023-11-19T01:37:33;0.70;;;0.70;;
60969;SDS011;46841;48.938;9.502;2023-11-19T01:40:00;0.68;;;0.68;;
60969;SDS011;46841;48.938;9.502;2023-11-19T01:42:25;0.60;;;0.60;;
60969;SDS011;46841;48.938;9.502;2023-11-19T01:45:00;0.60;;;0.60;;
60969;SDS011;46841;48.938;9.502;2023-11-19T01:47:26;0.60;;;0.60;;
60969;SDS011;46841;48.938;9.502;2023-11-19T01:49:55;0.60;;;0.60;;
60969;SDS011;46841;48.938;9.502;2023-11-19T01:52:22;0.70;;;0.70;;
60969;SDS011;46841;48.938;9.502;2023-11-19T01:54:48;0.70;;;0.70;;
60969;SDS011;46841;48.938;9.502;2023-11-19T01:57:15;0.75;;;0.75;;
60969;SDS011;46841;48.938;9.502;2023-11-19T01:59:41;0.70;;;0.70;;
60969;SDS011;46841;48.938;9.502;2023-11-19T02:02:07;0.70;;;0.70;;
60969;SDS011;46841;48.938;9.502;2023-11-19T02:04:32;0.60;;;0.60;;
60969;SDS011;46841;48.938;9.502;2023-11-19T02:07:00;0.60;;;0.60;;
60969;SDS011;46841;48.938;9.502;2023-11-19T02:09:25;0.70;;;0.70;;
60969;SDS011;46841;48.938;9.502;2023-11-19T02:11:52;0.60;;;0.60;;
60969;SDS011;46841;48.938;9.502;2023-11-19T02:16:47;0.70;;;0.70;;
60969;SDS011;46841;48.938;9.502;2023-11-19T02:19:12;0.60;;;0.60;;
60969;SDS011;46841;48.938;9.502;2023-11-19T02:21:38;0.60;;;0.60;;
60969;SDS011;46841;48.938;9.502;2023-11-19T02:24:04;0.68;;;0.68;;
60969;SDS011;46841;48.938;9.502;2023-11-19T02:26:39;0.60;;;0.60;;
60969;SDS011;46841;48.938;9.502;2023-11-19T02:29:11;0.65;;;0.65;;
60969;SDS011;46841;48.938;9.502;2023-11-19T02:31:38;0.60;;;0.60;;
60969;SDS011;46841;48.938;9.502;2023-11-19T02:34:03;0.60;;;0.60;;
60969;SDS011;46841;48.938;9.502;2023-11-19T02:36:29;0.60;;;0.60;;
60969;SDS011;46841;48.938;9.502;2023-11-19T02:38:54;0.60;;;0.60;;
60969;SDS011;46841;48.938;9.502;2023-11-19T02:41:20;0.60;;;0.60;;
60969;SDS011;46841;48.938;9.502;2023-11-19T02:43:45;0.60;;;0.60;;
60969;SDS011;46841;48.938;9.502;2023-11-19T02:46:13;0.60;;;0.60;;
60969;SDS011;46841;48.938;9.502;2023-11-19T02:48:39;0.60;;;0.60;;
60969;SDS011;46841;48.938;9.502;2023-11-19T02:51:05;0.60;;;0.60;;
60969;SDS011;46841;48.938;9.502;2023-11-19T02:53:34;0.50;;;0.50;;
60969;SDS011;46841;48.938;9.502;2023-11-19T02:56:00;0.60;;;0.60;;
60969;SDS011;46841;48.938;9.502;2023-11-19T02:58:31;0.55;;;0.55;;
60969;SDS011;46841;48.938;9.502;2023-11-19T03:00:57;0.55;;;0.55;;
60969;SDS011;46841;48.938;9.502;2023-11-19T03:03:26;0.60;;;0.60;;
60969;SDS011;46841;48.938;9.502;2023-11-19T03:06:03;0.60;;;0.60;;
60969;SDS011;46841;48.938;9.502;2023-11-19T03:08:36;0.60;;;0.60;;
60969;SDS011;46841;48.938;9.502;2023-11-19T03:11:02;0.60;;;0.60;;
60969;SDS011;46841;48.938;9.502;2023-11-19T03:13:27;0.60;;;0.60;;
60969;SDS011;46841;48.938;9.502;2023-11-19T03:15:52;0.60;;;0.60;;
60969;SDS011;46841;48.938;9.502;2023-11-19T03:18:19;0.60;;;0.60;;
60969;SDS011;46841;48.938;9.502;2023-11-19T03:20:46;0.68;;;0.68;;
60969;SDS011;46841;48.938;9.502;2023-11-19T03:23:13;0.60;;;0.60;;
60969;SDS011;46841;48.938;9.502;2023-11-19T03:25:38;0.60;;;0.60;;
60969;SDS011;46841;48.938;9.502;2023-11-19T03:28:04;0.60;;;0.60;;
60969;SDS011;46841;48.938;9.502;2023-11-19T03:30:30;0.52;;;0.52;;
60969;SDS011;46841;48.938;9.502;2023-11-19T03:32:56;0.60;;;0.60;;
60969;SDS011;46841;48.938;9.502;2023-11-19T03:35:22;0.60;;;0.60;;
60969;SDS011;46841;48.938;9.502;2023-11-19T03:37:50;0.60;;;0.60;;
60969;SDS011;46841;48.938;9.502;2023-11-19T03:40:16;0.50;;;0.50;;
60969;SDS011;46841;48.938;9.502;2023-11-19T03:42:43;0.60;;;0.60;;
60969;SDS011;46841;48.938;9.502;2023-11-19T03:45:09;0.70;;;0.70;;
60969;SDS011;46841;48.938;9.502;2023-11-19T03:47:35;0.60;;;0.60;;
60969;SDS011;46841;48.938;9.502;2023-11-19T03:50:01;0.60;;;0.60;;
60969;SDS011;46841;48.938;9.502;2023-11-19T03:52:28;0.60;;;0.60;;
60969;SDS011;46841;48.938;9.502;2023-11-19T03:54:54;0.70;;;0.70;;
60969;SDS011;46841;48.938;9.502;2023-11-19T03:57:21;0.55;;;0.55;;
60969;SDS011;46841;48.938;9.502;2023-11-19T03:59:47;0.60;;;0.60;;
60969;SDS011;46841;48.938;9.502;2023-11-19T04:02:12;0.60;;;0.60;;
60969;SDS011;46841;48.938;9.502;2023-11-19T04:04:38;0.60;;;0.60;;
60969;SDS011;46841;48.938;9.502;2023-11-19T04:07:04;0.60;;;0.60;;
60969;SDS011;46841;48.938;9.502;2023-11-19T04:09:30;0.50;;;0.50;;
60969;SDS011;46841;48.938;9.502;2023-11-19T04:11:57;0.60;;;0.60;;
60969;SDS011;46841;48.938;9.502;2023-11-19T04:14:23;0.60;;;0.60;;
60969;SDS011;46841;48.938;9.502;2023-11-19T04:16:49;0.60;;;0.60;;
60969;SDS011;46841;48.938;9.502;2023-11-19T04:19:16;0.60;;;0.60;;
60969;SDS011;46841;48.938;9.502;2023-11-19T04:21:41;0.50;;;0.50;;
60969;SDS011;46841;48.938;9.502;2023-11-19T04:24:07;0.68;;;0.68;;
60969;SDS011;46841;48.938;9.502;2023-11-19T04:26:34;0.60;;;0.60;;
60969;SDS011;46841;48.938;9.502;2023-11-19T04:28:59;0.60;;;0.60;;
60969;SDS011;46841;48.938;9.502;2023-11-19T04:31:28;0.60;;;0.60;;
60969;SDS011;46841;48.938;9.502;2023-11-19T04:33:56;0.60;;;0.60;;
60969;SDS011;46841;48.938;9.502;2023-11-19T04:36:21;0.60;;;0.60;;
60969;SDS011;46841;48.938;9.502;2023-11-19T04:38:49;0.60;;;0.60;;
60969;SDS011;46841;48.938;9.502;2023-11-19T04:41:14;0.60;;;0.60;;
60969;SDS011;46841;48.938;9.502;2023-11-19T04:43:40;0.50;;;0.50;;
60969;SDS011;46841;48.938;9.502;2023-11-19T04:46:05;0.60;;;0.60;;
60969;SDS011;46841;48.938;9.502;2023-11-19T04:48:31;0.50;;;0.50;;
60969;SDS011;46841;48.938;9.502;2023-11-19T04:50:56;0.60;;;0.60;;
60969;SDS011;46841;48.938;9.502;2023-11-19T04:53:22;0.60;;;0.60;;
60969;SDS011;46841;48.938;9.502;2023-11-19T04:55:47;0.60;;;0.60;;
60969;SDS011;46841;48.938;9.502;2023-11-19T04:58:13;0.60;;;0.60;;
60969;SDS011;46841;48.938;9.502;2023-11-19T05:00:40;0.60;;;0.60;;
60969;SDS011;46841;48.938;9.502;2023-11-19T05:03:05;0.60;;;0.60;;
60969;SDS011;46841;48.938;9.502;2023-11-19T05:05:31;0.60;;;0.60;;
60969;SDS011;46841;48.938;9.502;2023-11-19T05:07:57;0.52;;;0.52;;
60969;SDS011;46841;48.938;9.502;2023-11-19T05:10:22;0.60;;;0.60;;
60969;SDS011;46841;48.938;9.502;2023-11-19T05:12:47;0.60;;;0.60;;
60969;SDS011;46841;48.938;9.502;2023-11-19T05:15:13;0.50;;;0.50;;
60969;SDS011;46841;48.938;9.502;2023-11-19T05:17:39;0.60;;;0.60;;
60969;SDS011;46841;48.938;9.502;2023-11-19T05:20:04;0.60;;;0.60;;
60969;SDS011;46841;48.938;9.502;2023-11-19T05:22:38;0.57;;;0.57;;
60969;SDS011;46841;48.938;9.502;2023-11-19T05:25:05;0.50;;;0.50;;
60969;SDS011;46841;48.938;9.502;2023-11-19T05:27:31;0.50;;;0.50;;
60969;SDS011;46841;48.938;9.502;2023-11-19T05:29:56;0.57;;;0.57;;
60969;SDS011;46841;48.938;9.502;2023-11-19T05:32:21;0.60;;;0.60;;
60969;SDS011;46841;48.938;9.502;2023-11-19T05:34:47;0.60;;;0.60;;
60969;SDS011;46841;48.938;9.502;2023-11-19T05:37:12;0.57;;;0.57;;
60969;SDS011;46841;48.938;9.502;2023-11-19T05:39:38;0.60;;;0.60;;
60969;SDS011;46841;48.938;9.502;2023-11-19T05:42:03;0.50;;;0.50;;
60969;SDS011;46841;48.938;9.502;2023-11-19T05:44:29;0.50;;;0.50;;
60969;SDS011;46841;48.938;9.502;2023-11-19T05:46:54;0.50;;;0.50;;
60969;SDS011;46841;48.938;9.502;2023-11-19T05:49:19;0.50;;;0.50;;
60969;SDS011;46841;48.938;9.502;2023-11-19T05:51:45;0.52;;;0.52;;
60969;SDS011;46841;48.938;9.502;2023-11-19T05:54:11;0.50;;;0.50;;
60969;SDS011;46841;48.938;9.502;2023-11-19T05:56:38;0.60;;;0.60;;
60969;SDS011;46841;48.938;9.502;2023-11-19T05:59:04;0.43;;;0.43;;
60969;SDS011;46841;48.938;9.502;2023-11-19T06:01:35;0.50;;;0.50;;
60969;SDS011;46841;48.938;9.502;2023-11-19T06:04:00;0.50;;;0.50;;
60969;SDS011;46841;48.938;9.502;2023-11-19T06:06:26;0.50;;;0.50;;
60969;SDS011;46841;48.938;9.502;2023-11-19T06:08:52;0.50;;;0.50;;
60969;SDS011;46841;48.938;9.502;2023-11-19T06:11:18;0.50;;;0.50;;
60969;SDS011;46841;48.938;9.502;2023-11-19T06:13:45;0.60;;;0.60;;
60969;SDS011;46841;48.938;9.502;2023-11-19T06:16:11;0.55;;;0.55;;
60969;SDS011;46841;48.938;9.502;2023-11-19T06:18:37;0.60;;;0.60;;
60969;SDS011;46841;48.938;9.502;2023-11-19T06:21:02;0.50;;;0.50;;
60969;SDS011;46841;48.938;9.502;2023-11-19T06:23:28;0.50;;;0.50;;
60969;SDS011;46841;48.938;9.502;2023-11-19T06:25:54;0.50;;;0.50;;
60969;SDS011;46841;48.938;9.502;2023-11-19T06:28:19;0.52;;;0.52;;
60969;SDS011;46841;48.938;9.502;2023-11-19T06:30:44;0.50;;;0.50;;
60969;SDS011;46841;48.938;9.502;2023-11-19T06:33:13;0.50;;;0.50;;
60969;SDS011;46841;48.938;9.502;2023-11-19T06:35:39;0.50;;;0.50;;
60969;SDS011;46841;48.938;9.502;2023-11-19T06:38:05;0.50;;;0.50;;
60969;SDS011;46841;48.938;9.502;2023-11-19T06:40:31;0.60;;;0.60;;
60969;SDS011;46841;48.938;9.502;2023-11-19T06:42:58;0.57;;;0.57;;
60969;SDS011;46841;48.938;9.502;2023-11-19T06:45:23;0.50;;;0.50;;
60969;SDS011;46841;48.938;9.502;2023-11-19T06:47:49;0.50;;;0.50;;
60969;SDS011;46841;48.938;9.502;2023-11-19T06:50:15;0.50;;;0.50;;
60969;SDS011;46841;48.938;9.502;2023-11-19T06:52:40;0.55;;;0.55;;
60969;SDS011;46841;48.938;9.502;2023-11-19T06:55:06;0.50;;;0.50;;
60969;SDS011;46841;48.938;9.502;2023-11-19T06:57:32;0.50;;;0.50;;
60969;SDS011;46841;48.938;9.502;2023-11-19T06:59:58;0.57;;;0.57;;
60969;SDS011;46841;48.938;9.502;2023-11-19T07:02:24;0.50;;;0.50;;
60969;SDS011;46841;48.938;9.502;2023-11-19T07:04:50;0.60;;;0.60;;
60969;SDS011;46841;48.938;9.502;2023-11-19T07:07:16;0.50;;;0.50;;
60969;SDS011;46841;48.938;9.502;2023-11-19T07:09:41;0.50;;;0.50;;
60969;SDS011;46841;48.938;9.502;2023-11-19T07:12:07;0.50;;;0.50;;
60969;SDS011;46841;48.938;9.502;2023-11-19T07:14:34;0.60;;;0.60;;
60969;SDS011;46841;48.938;9.502;2023-11-19T07:16:59;0.50;;;0.50;;
60969;SDS011;46841;48.938;9.502;2023-11-19T07:19:25;0.50;;;0.50;;
60969;SDS011;46841;48.938;9.502;2023-11-19T07:21:51;0.50;;;0.50;;
60969;SDS011;46841;48.938;9.502;2023-11-19T07:24:19;0.50;;;0.50;;
60969;SDS011;46841;48.938;9.502;2023-11-19T07:26:45;0.50;;;0.50;;
60969;SDS011;46841;48.938;9.502;2023-11-19T07:29:12;0.50;;;0.50;;
60969;SDS011;46841;48.938;9.502;2023-11-19T07:31:38;0.50;;;0.50;;
60969;SDS011;46841;48.938;9.502;2023-11-19T07:34:04;0.50;;;0.50;;
60969;SDS011;46841;48.938;9.502;2023-11-19T07:38:58;0.50;;;0.50;;
60969;SDS011;46841;48.938;9.502;2023-11-19T07:41:24;0.50;;;0.50;;
60969;SDS011;46841;48.938;9.502;2023-11-19T07:43:50;0.55;;;0.55;;
60969;SDS011;46841;48.938;9.502;2023-11-19T07:46:17;0.50;;;0.50;;
60969;SDS011;46841;48.938;9.502;2023-11-19T07:48:44;0.50;;;0.50;;
60969;SDS011;46841;48.938;9.502;2023-11-19T07:51:12;0.50;;;0.50;;
60969;SDS011;46841;48.938;9.502;2023-11-19T07:53:38;0.50;;;0.50;;
60969;SDS011;46841;48.938;9.502;2023-11-19T07:56:04;0.50;;;0.50;;
60969;SDS011;46841;48.938;9.502;2023-11-19T07:58:30;0.50;;;0.50;;
60969;SDS011;46841;48.938;9.502;2023-11-19T08:00:56;0.43;;;0.43;;
60969;SDS011;46841;48.938;9.502;2023-11-19T08:03:22;0.50;;;0.50;;
60969;SDS011;46841;48.938;9.502;2023-11-19T08:05:48;0.60;;;0.60;;
60969;SDS011;46841;48.938;9.502;2023-11-19T08:08:14;0.50;;;0.50;;
60969;SDS011;46841;48.938;9.502;2023-11-19T08:10:40;0.52;;;0.52;;
60969;SDS011;46841;48.938;9.502;2023-11-19T08:13:06;0.60;;;0.60;;
60969;SDS011;46841;48.938;9.502;2023-11-19T08:15:32;0.60;;;0.60;;
60969;SDS011;46841;48.938;9.502;2023-11-19T08:17:58;0.50;;;0.50;;
60969;SDS011;46841;48.938;9.502;2023-11-19T08:20:23;0.60;;;0.60;;
60969;SDS011;46841;48.938;9.502;2023-11-19T08:22:49;0.57;;;0.57;;
60969;SDS011;46841;48.938;9.502;2023-11-19T08:25:14;0.50;;;0.50;;
60969;SDS011;46841;48.938;9.502;2023-11-19T08:27:40;0.50;;;0.50;;
60969;SDS011;46841;48.938;9.502;2023-11-19T08:30:05;0.50;;;0.50;;
60969;SDS011;46841;48.938;9.502;2023-11-19T08:32:32;0.50;;;0.50;;
60969;SDS011;46841;48.938;9.502;2023-11-19T08:34:57;0.50;;;0.50;;
60969;SDS011;46841;48.938;9.502;2023-11-19T08:37:23;0.50;;;0.50;;
60969;SDS011;46841;48.938;9.502;2023-11-19T08:39:49;0.50;;;0.50;;
60969;SDS011;46841;48.938;9.502;2023-11-19T08:42:15;0.55;;;0.55;;
60969;SDS011;46841;48.938;9.502;2023-11-19T08:44:48;0.50;;;0.50;;
60969;SDS011;46841;48.938;9.502;2023-11-19T08:47:15;0.50;;;0.50;;
60969;SDS011;46841;48.938;9.502;2023-11-19T08:49:43;0.50;;;0.50;;
60969;SDS011;46841;48.938;9.502;2023-11-19T08:52:09;0.47;;;0.47;;
60969;SDS011;46841;48.938;9.502;2023-11-19T08:54:35;0.40;;;0.40;;
60969;SDS011;46841;48.938;9.502;2023-11-19T08:57:07;0.50;;;0.50;;
60969;SDS011;46841;48.938;9.502;2023-11-19T08:59:34;0.50;;;0.50;;
60969;SDS011;46841;48.938;9.502;2023-11-19T09:02:07;0.40;;;0.40;;
60969;SDS011;46841;48.938;9.502;2023-11-19T09:04:33;0.40;;;0.40;;
60969;SDS011;46841;48.938;9.502;2023-11-19T09:06:59;0.43;;;0.43;;
60969;SDS011;46841;48.938;9.502;2023-11-19T09:09:24;0.50;;;0.50;;
60969;SDS011;46841;48.938;9.502;2023-11-19T09:11:50;0.50;;;0.50;;
60969;SDS011;46841;48.938;9.502;2023-11-19T09:14:16;0.50;;;0.50;;
60969;SDS011;46841;48.938;9.502;2023-11-19T09:16:43;0.50;;;0.50;;
60969;SDS011;46841;48.938;9.502;2023-11-19T09:19:08;0.40;;;0.40;;
60969;SDS011;46841;48.938;9.502;2023-11-19T09:21:34;0.40;;;0.40;;
60969;SDS011;46841;48.938;9.502;2023-11-19T09:24:02;0.47;;;0.47;;
60969;SDS011;46841;48.938;9.502;2023-11-19T09:26:28;0.40;;;0.40;;
60969;SDS011;46841;48.938;9.502;2023-11-19T09:28:54;0.50;;;0.50;;
60969;SDS011;46841;48.938;9.502;2023-11-19T09:31:19;0.40;;;0.40;;
60969;SDS011;46841;48.938;9.502;2023-11-19T09:33:47;0.40;;;0.40;;
60969;SDS011;46841;48.938;9.502;2023-11-19T09:36:12;0.40;;;0.40;;
60969;SDS011;46841;48.938;9.502;2023-11-19T09:38:42;0.50;;;0.50;;
60969;SDS011;46841;48.938;9.502;2023-11-19T09:41:10;0.40;;;0.40;;
60969;SDS011;46841;48.938;9.502;2023-11-19T09:43:41;0.40;;;0.40;;
60969;SDS011;46841;48.938;9.502;2023-11-19T09:46:11;0.40;;;0.40;;
60969;SDS011;46841;48.938;9.502;2023-11-19T09:48:39;0.40;;;0.40;;
60969;SDS011;46841;48.938;9.502;2023-11-19T09:51:07;0.40;;;0.40;;
60969;SDS011;46841;48.938;9.502;2023-11-19T09:56:01;0.60;;;0.60;;
60969;SDS011;46841;48.938;9.502;2023-11-19T09:58:31;0.47;;;0.47;;
60969;SDS011;46841;48.938;9.502;2023-11-19T10:00:57;0.45;;;0.45;;
60969;SDS011;46841;48.938;9.502;2023-11-19T10:03:24;0.50;;;0.50;;
60969;SDS011;46841;48.938;9.502;2023-11-19T10:05:52;0.50;;;0.50;;
60969;SDS011;46841;48.938;9.502;2023-11-19T10:08:20;0.50;;;0.50;;
60969;SDS011;46841;48.938;9.502;2023-11-19T10:10:45;0.50;;;0.50;;
60969;SDS011;46841;48.938;9.502;2023-11-19T10:13:12;0.57;;;0.57;;
60969;SDS011;46841;48.938;9.502;2023-11-19T10:18:05;0.43;;;0.43;;
60969;SDS011;46841;48.938;9.502;2023-11-19T10:20:37;0.40;;;0.40;;
60969;SDS011;46841;48.938;9.502;2023-11-19T10:23:03;0.40;;;0.40;;
60969;SDS011;46841;48.938;9.502;2023-11-19T10:25:29;0.40;;;0.40;;
60969;SDS011;46841;48.938;9.502;2023-11-19T10:27:55;0.40;;;0.40;;
60969;SDS011;46841;48.938;9.502;2023-11-19T10:30:22;0.40;;;0.40;;
60969;SDS011;46841;48.938;9.502;2023-11-19T10:35:33;0.40;;;0.40;;
60969;SDS011;46841;48.938;9.502;2023-11-19T10:38:00;0.40;;;0.40;;
60969;SDS011;46841;48.938;9.502;2023-11-19T10:40:39;0.40;;;0.40;;
60969;SDS011;46841;48.938;9.502;2023-11-19T10:43:08;0.40;;;0.40;;
60969;SDS011;46841;48.938;9.502;2023-11-19T10:45:37;0.40;;;0.40;;
60969;SDS011;46841;48.938;9.502;2023-11-19T10:48:04;0.40;;;0.40;;
60969;SDS011;46841;48.938;9.502;2023-11-19T10:50:33;0.30;;;0.30;;
60969;SDS011;46841;48.938;9.502;2023-11-19T10:53:01;0.40;;;0.40;;
60969;SDS011;46841;48.938;9.502;2023-11-19T10:57:58;0.40;;;0.40;;
60969;SDS011;46841;48.938;9.502;2023-11-19T11:00:29;0.50;;;0.50;;
60969;SDS011;46841;48.938;9.502;2023-11-19T11:02:59;0.40;;;0.40;;
60969;SDS011;46841;48.938;9.502;2023-11-19T11:05:26;0.40;;;0.40;;
60969;SDS011;46841;48.938;9.502;2023-11-19T11:07:52;0.30;;;0.30;;
60969;SDS011;46841;48.938;9.502;2023-11-19T11:10:22;0.30;;;0.30;;
60969;SDS011;46841;48.938;9.502;2023-11-19T11:12:51;0.40;;;0.40;;
60969;SDS011;46841;48.938;9.502;2023-11-19T11:15:22;0.30;;;0.30;;
60969;SDS011;46841;48.938;9.502;2023-11-19T11:17:52;0.30;;;0.30;;
60969;SDS011;46841;48.938;9.502;2023-11-19T11:20:22;0.40;;;0.40;;
60969;SDS011;46841;48.938;9.502;2023-11-19T11:23:02;0.30;;;0.30;;
60969;SDS011;46841;48.938;9.502;2023-11-19T11:28:38;0.30;;;0.30;;
60969;SDS011;46841;48.938;9.502;2023-11-19T11:31:15;0.40;;;0.40;;
60969;SDS011;46841;48.938;9.502;2023-11-19T11:39:32;0.30;;;0.30;;
60969;SDS011;46841;48.938;9.502;2023-11-19T11:50:09;0.40;;;0.40;;
60969;SDS011;46841;48.938;9.502;2023-11-19T11:58:17;0.30;;;0.30;;
60969;SDS011;46841;48.938;9.502;2023-11-19T12:00:57;0.30;;;0.30;;
60969;SDS011;46841;48.938;9.502;2023-11-19T12:03:26;0.30;;;0.30;;
60969;SDS011;46841;48.938;9.502;2023-11-19T12:05:53;0.50;;;0.50;;
60969;SDS011;46841;48.938;9.502;2023-11-19T12:08:20;0.30;;;0.30;;
60969;SDS011;46841;48.938;9.502;2023-11-19T12:10:50;0.40;;;0.40;;
60969;SDS011;46841;48.938;9.502;2023-11-19T12:13:17;0.30;;;0.30;;
60969;SDS011;46841;48.938;9.502;2023-11-19T12:18:28;0.40;;;0.40;;
60969;SDS011;46841;48.938;9.502;2023-11-19T12:20:56;0.40;;;0.40;;
60969;SDS011;46841;48.938;9.502;2023-11-19T12:23:22;0.30;;;0.30;;
60969;SDS011;46841;48.938;9.502;2023-11-19T12:25:48;0.40;;;0.40;;
60969;SDS011;46841;48.938;9.502;2023-11-19T12:28:16;0.30;;;0.30;;
60969;SDS011;46841;48.938;9.502;2023-11-19T12:30:45;0.40;;;0.40;;
60969;SDS011;46841;48.938;9.502;2023-11-19T12:33:13;0.40;;;0.40;;
60969;SDS011;46841;48.938;9.502;2023-11-19T12:35:40;0.40;;;0.40;;
60969;SDS011;46841;48.938;9.502;2023-11-19T12:38:19;0.40;;;0.40;;
60969;SDS011;46841;48.938;9.502;2023-11-19T12:41:07;0.60;;;0.60;;
60969;SDS011;46841;48.938;9.502;2023-11-19T12:43:36;0.30;;;0.30;;
60969;SDS011;46841;48.938;9.502;2023-11-19T12:46:26;0.57;;;0.57;;
60969;SDS011;46841;48.938;9.502;2023-11-19T12:48:52;0.50;;;0.50;;
60969;SDS011;46841;48.938;9.502;2023-11-19T12:51:18;0.30;;;0.30;;
60969;SDS011;46841;48.938;9.502;2023-11-19T12:53:48;0.30;;;0.30;;
60969;SDS011;46841;48.938;9.502;2023-11-19T12:56:15;0.30;;;0.30;;
60969;SDS011;46841;48.938;9.502;2023-11-19T12:58:41;0.40;;;0.40;;
60969;SDS011;46841;48.938;9.502;2023-11-19T13:01:07;0.50;;;0.50;;
60969;SDS011;46841;48.938;9.502;2023-11-19T13:03:36;0.30;;;0.30;;
60969;SDS011;46841;48.938;9.502;2023-11-19T13:08:43;0.30;;;0.30;;
60969;SDS011;46841;48.938;9.502;2023-11-19T13:11:09;0.30;;;0.30;;
60969;SDS011;46841;48.938;9.502;2023-11-19T13:14:18;0.30;;;0.30;;
60969;SDS011;46841;48.938;9.502;2023-11-19T13:16:26;0.30;;;0.30;;
60969;SDS011;46841;48.938;9.502;2023-11-19T13:21:18;0.40;;;0.40;;
60969;SDS011;46841;48.938;9.502;2023-11-19T13:23:44;0.30;;;0.30;;
60969;SDS011;46841;48.938;9.502;2023-11-19T13:26:09;0.40;;;0.40;;
60969;SDS011;46841;48.938;9.502;2023-11-19T13:28:36;0.40;;;0.40;;
60969;SDS011;46841;48.938;9.502;2023-11-19T13:31:01;0.40;;;0.40;;
60969;SDS011;46841;48.938;9.502;2023-11-19T13:33:28;0.40;;;0.40;;
60969;SDS011;46841;48.938;9.502;2023-11-19T13:35:54;0.30;;;0.30;;
60969;SDS011;46841;48.938;9.502;2023-11-19T13:38:20;0.30;;;0.30;;
60969;SDS011;46841;48.938;9.502;2023-11-19T13:40:45;0.40;;;0.40;;
60969;SDS011;46841;48.938;9.502;2023-11-19T13:43:11;0.50;;;0.50;;
60969;SDS011;46841;48.938;9.502;2023-11-19T13:45:36;0.50;;;0.50;;
60969;SDS011;46841;48.938;9.502;2023-11-19T13:48:02;0.30;;;0.30;;
60969;SDS011;46841;48.938;9.502;2023-11-19T13:50:28;0.30;;;0.30;;
60969;SDS011;46841;48.938;9.502;2023-11-19T13:52:54;0.30;;;0.30;;
60969;SDS011;46841;48.938;9.502;2023-11-19T13:55:20;0.30;;;0.30;;
60969;SDS011;46841;48.938;9.502;2023-11-19T13:57:45;0.50;;;0.50;;
60969;SDS011;46841;48.938;9.502;2023-11-19T14:00:11;0.40;;;0.40;;
60969;SDS011;46841;48.938;9.502;2023-11-19T14:02:41;0.40;;;0.40;;
60969;SDS011;46841;48.938;9.502;2023-11-19T14:05:09;0.30;;;0.30;;
60969;SDS011;46841;48.938;9.502;2023-11-19T14:07:41;0.30;;;0.30;;
60969;SDS011;46841;48.938;9.502;2023-11-19T14:10:07;0.40;;;0.40;;
60969;SDS011;46841;48.938;9.502;2023-11-19T14:12:36;0.30;;;0.30;;
60969;SDS011;46841;48.938;9.502;2023-11-19T14:15:03;0.40;;;0.40;;
60969;SDS011;46841;48.938;9.502;2023-11-19T14:17:33;0.30;;;0.30;;
60969;SDS011;46841;48.938;9.502;2023-11-19T14:19:59;0.25;;;0.25;;
60969;SDS011;46841;48.938;9.502;2023-11-19T14:22:25;0.40;;;0.40;;
60969;SDS011;46841;48.938;9.502;2023-11-19T14:24:50;0.40;;;0.40;;
60969;SDS011;46841;48.938;9.502;2023-11-19T14:27:16;0.32;;;0.32;;
60969;SDS011;46841;48.938;9.502;2023-11-19T14:29:44;0.30;;;0.30;;
60969;SDS011;46841;48.938;9.502;2023-11-19T14:32:10;0.20;;;0.20;;
60969;SDS011;46841;48.938;9.502;2023-11-19T14:34:36;0.30;;;0.30;;
60969;SDS011;46841;48.938;9.502;2023-11-19T14:37:02;0.30;;;0.30;;
60969;SDS011;46841;48.938;9.502;2023-11-19T14:39:28;0.30;;;0.30;;
60969;SDS011;46841;48.938;9.502;2023-11-19T14:41:57;0.40;;;0.40;;
60969;SDS011;46841;48.938;9.502;2023-11-19T14:44:29;0.30;;;0.30;;
60969;SDS011;46841;48.938;9.502;2023-11-19T14:46:55;0.30;;;0.30;;
60969;SDS011;46841;48.938;9.502;2023-11-19T14:49:21;0.30;;;0.30;;
60969;SDS011;46841;48.938;9.502;2023-11-19T14:51:49;0.30;;;0.30;;
60969;SDS011;46841;48.938;9.502;2023-11-19T14:54:14;0.40;;;0.40;;
60969;SDS011;46841;48.938;9.502;2023-11-19T14:56:41;0.40;;;0.40;;
60969;SDS011;46841;48.938;9.502;2023-11-19T14:59:07;0.40;;;0.40;;
60969;SDS011;46841;48.938;9.502;2023-11-19T15:01:32;0.40;;;0.40;;
60969;SDS011;46841;48.938;9.502;2023-11-19T15:03:58;0.40;;;0.40;;
60969;SDS011;46841;48.938;9.502;2023-11-19T15:06:23;0.40;;;0.40;;
60969;SDS011;46841;48.938;9.502;2023-11-19T15:08:53;0.40;;;0.40;;
60969;SDS011;46841;48.938;9.502;2023-11-19T15:11:20;0.40;;;0.40;;
60969;SDS011;46841;48.938;9.502;2023-11-19T15:13:46;0.40;;;0.40;;
60969;SDS011;46841;48.938;9.502;2023-11-19T15:16:11;0.40;;;0.40;;
60969;SDS011;46841;48.938;9.502;2023-11-19T15:21:04;0.40;;;0.40;;
60969;SDS011;46841;48.938;9.502;2023-11-19T15:23:30;0.40;;;0.40;;
60969;SDS011;46841;48.938;9.502;2023-11-19T15:25:55;0.40;;;0.40;;
60969;SDS011;46841;48.938;9.502;2023-11-19T15:28:21;0.40;;;0.40;;
60969;SDS011;46841;48.938;9.502;2023-11-19T15:30:47;0.40;;;0.40;;
60969;SDS011;46841;48.938;9.502;2023-11-19T15:33:12;0.40;;;0.40;;